createdAt,value
2018-12-22T00:00:24.748Z,89.30
2018-12-22T00:02:53.067Z,88.30
2018-12-22T00:05:21.582Z,88.10
2018-12-22T00:07:49.934Z,88.00
2018-12-22T00:10:18.275Z,88.20
2018-12-22T00:12:46.720Z,88.20
2018-12-22T00:15:15.038Z,88.20
2018-12-22T00:17:43.395Z,87.90
2018-12-22T00:20:11.745Z,88.00
2018-12-22T00:22:40.091Z,88.00
2018-12-22T00:25:08.425Z,88.30
2018-12-22T00:27:38.783Z,88.40
2018-12-22T00:30:07.910Z,88.60
2018-12-22T00:32:36.264Z,88.80
2018-12-22T00:35:05.367Z,89.10
2018-12-22T00:37:33.712Z,89.10
2018-12-22T00:40:02.401Z,88.90
2018-12-22T00:42:30.780Z,89.00
2018-12-22T00:44:59.162Z,89.30
2018-12-22T00:47:27.491Z,89.10
2018-12-22T00:49:55.912Z,88.90
2018-12-22T00:52:24.280Z,88.70
2018-12-22T00:54:52.646Z,88.60
2018-12-22T00:57:21.033Z,88.50
2018-12-22T00:59:49.370Z,88.40
2018-12-22T01:02:17.783Z,88.40
2018-12-22T01:04:46.103Z,88.40
2018-12-22T01:07:14.945Z,88.40
2018-12-22T01:09:43.598Z,88.30
2018-12-22T01:12:12.270Z,88.10
2018-12-22T01:14:40.605Z,88.20
2018-12-22T01:17:08.938Z,88.20
2018-12-22T01:19:37.274Z,88.20
2018-12-22T01:22:05.607Z,88.20
2018-12-22T01:24:33.948Z,88.10
2018-12-22T01:27:02.289Z,88.40
2018-12-22T01:29:30.615Z,88.30
2018-12-22T01:31:58.967Z,88.50
2018-12-22T01:34:27.327Z,88.80
2018-12-22T01:36:55.681Z,88.90
2018-12-22T01:39:24.059Z,89.30
2018-12-22T01:41:52.526Z,89.70
2018-12-22T01:44:20.861Z,90.10
2018-12-22T01:46:49.207Z,90.10
2018-12-22T01:49:17.561Z,90.10
2018-12-22T01:51:45.937Z,90.10
2018-12-22T01:54:14.231Z,90.10
2018-12-22T01:56:42.603Z,90.10
2018-12-22T01:59:10.953Z,89.70
2018-12-22T02:01:39.295Z,88.90
2018-12-22T02:04:07.792Z,89.20
2018-12-22T02:06:36.152Z,89.40
2018-12-22T02:09:06.728Z,89.50
2018-12-22T02:11:35.060Z,90.20
2018-12-22T02:14:03.499Z,90.20
2018-12-22T02:16:31.923Z,90.20
2018-12-22T02:19:00.291Z,90.10
2018-12-22T02:21:28.678Z,87.60
2018-12-22T02:23:57.003Z,86.70
2018-12-22T02:26:25.421Z,85.60
2018-12-22T02:28:56.926Z,85.40
2018-12-22T02:31:24.187Z,84.70
2018-12-22T02:33:52.533Z,84.90
2018-12-22T02:36:20.863Z,85.40
2018-12-22T02:38:49.210Z,83.70
2018-12-22T02:41:17.594Z,84.50
2018-12-22T02:43:46.132Z,85.10
2018-12-22T02:46:14.482Z,84.50
2018-12-22T02:48:42.833Z,83.30
2018-12-22T02:51:11.195Z,83.90
2018-12-22T02:53:39.530Z,84.20
2018-12-22T02:56:07.850Z,84.90
2018-12-22T02:58:36.196Z,85.90
2018-12-22T03:01:04.640Z,85.50
2018-12-22T03:03:32.986Z,84.90
2018-12-22T03:06:01.341Z,84.30
2018-12-22T03:08:29.685Z,83.80
2018-12-22T03:10:58.133Z,84.00
2018-12-22T03:13:26.452Z,83.40
2018-12-22T03:15:54.783Z,83.80
2018-12-22T03:18:23.150Z,84.00
2018-12-22T03:20:51.495Z,83.50
2018-12-22T03:23:19.849Z,81.90
2018-12-22T03:25:48.283Z,82.20
2018-12-22T03:28:16.655Z,81.80
2018-12-22T03:30:44.999Z,81.80
2018-12-22T03:33:13.428Z,81.80
2018-12-22T03:35:41.840Z,81.80
2018-12-22T03:38:10.262Z,81.30
2018-12-22T03:40:38.629Z,81.70
2018-12-22T03:43:06.959Z,82.80
2018-12-22T03:45:35.319Z,82.10
2018-12-22T03:48:03.666Z,82.30
2018-12-22T03:50:32.016Z,82.60
2018-12-22T03:53:00.365Z,82.70
2018-12-22T03:55:29.469Z,83.50
2018-12-22T03:57:57.785Z,83.80
2018-12-22T04:00:26.132Z,84.40
2018-12-22T04:02:54.473Z,84.30
2018-12-22T04:05:22.951Z,84.70
2018-12-22T04:07:51.269Z,85.00
2018-12-22T04:10:19.621Z,85.60
2018-12-22T04:12:47.985Z,86.00
2018-12-22T04:15:16.422Z,85.90
2018-12-22T04:17:44.804Z,85.10
2018-12-22T04:20:13.204Z,85.10
2018-12-22T04:22:41.596Z,83.80
2018-12-22T04:25:09.924Z,83.80
2018-12-22T04:27:38.269Z,81.30
2018-12-22T04:30:06.677Z,80.60
2018-12-22T04:32:35.022Z,79.70
2018-12-22T04:35:03.386Z,77.90
2018-12-22T04:37:31.663Z,76.70
2018-12-22T04:40:00.023Z,78.20
2018-12-22T04:42:28.356Z,78.00
2018-12-22T04:44:56.699Z,76.80
2018-12-22T04:47:25.019Z,79.00
2018-12-22T04:49:53.330Z,78.90
2018-12-22T04:52:21.791Z,80.30
2018-12-22T04:54:50.107Z,81.60
2018-12-22T04:57:18.467Z,81.90
2018-12-22T04:59:46.794Z,82.50
2018-12-22T05:02:15.165Z,83.40
2018-12-22T05:04:43.493Z,83.20
2018-12-22T05:07:11.856Z,84.60
2018-12-22T05:09:40.221Z,83.70
2018-12-22T05:12:08.553Z,81.80
2018-12-22T05:14:36.987Z,82.00
2018-12-22T05:17:05.415Z,81.90
2018-12-22T05:19:33.748Z,80.60
2018-12-22T05:22:02.183Z,79.70
2018-12-22T05:24:30.563Z,80.30
2018-12-22T05:26:58.897Z,77.60
2018-12-22T05:29:27.231Z,79.30
2018-12-22T05:32:01.359Z,77.10
2018-12-22T05:34:29.988Z,73.10
2018-12-22T05:36:58.338Z,75.10
2018-12-22T05:39:26.655Z,73.10
2018-12-22T05:41:55.000Z,73.80
2018-12-22T05:44:23.314Z,75.50
2018-12-22T05:46:51.670Z,76.40
2018-12-22T05:49:20.030Z,76.70
2018-12-22T05:51:48.354Z,77.90
2018-12-22T05:54:16.736Z,76.40
2018-12-22T05:56:45.072Z,76.90
2018-12-22T05:59:13.426Z,77.70
2018-12-22T06:01:41.897Z,76.20
2018-12-22T06:04:10.282Z,76.50
2018-12-22T06:06:38.664Z,75.50
2018-12-22T06:09:07.132Z,73.70
2018-12-22T06:11:35.461Z,74.80
2018-12-22T06:14:03.960Z,75.10
2018-12-22T06:16:32.322Z,73.30
2018-12-22T06:19:00.636Z,75.20
2018-12-22T06:21:29.026Z,74.30
2018-12-22T06:23:57.364Z,73.50
2018-12-22T06:26:25.717Z,72.70
2018-12-22T06:28:54.101Z,72.00
2018-12-22T06:31:22.466Z,72.00
2018-12-22T06:33:50.808Z,71.30
2018-12-22T06:36:19.168Z,72.00
2018-12-22T06:38:47.519Z,71.60
2018-12-22T06:41:15.866Z,70.30
2018-12-22T06:43:44.423Z,71.60
2018-12-22T06:46:12.760Z,72.00
2018-12-22T06:48:41.110Z,72.10
2018-12-22T06:51:09.452Z,69.50
2018-12-22T06:53:37.857Z,71.10
2018-12-22T06:56:07.075Z,71.70
2018-12-22T06:58:35.450Z,72.00
2018-12-22T07:01:03.809Z,72.40
2018-12-22T07:03:32.318Z,70.90
2018-12-22T07:06:00.656Z,69.10
2018-12-22T07:08:28.987Z,69.10
2018-12-22T07:10:57.390Z,69.10
2018-12-22T07:13:25.848Z,67.60
2018-12-22T07:15:54.210Z,69.20
2018-12-22T07:18:22.550Z,68.90
2018-12-22T07:20:50.876Z,69.30
2018-12-22T07:23:19.207Z,67.80
2018-12-22T07:25:47.550Z,69.20
2018-12-22T07:28:15.886Z,69.10
2018-12-22T07:30:44.312Z,69.60
2018-12-22T07:33:12.678Z,68.80
2018-12-22T07:35:41.050Z,69.80
2018-12-22T07:38:09.471Z,70.80
2018-12-22T07:40:37.837Z,70.00
2018-12-22T07:43:06.308Z,70.30
2018-12-22T07:45:34.728Z,70.20
2018-12-22T07:48:03.254Z,72.00
2018-12-22T07:50:31.662Z,70.80
2018-12-22T07:53:00.026Z,71.20
2018-12-22T07:55:28.408Z,71.90
2018-12-22T07:57:56.770Z,71.90
2018-12-22T08:00:25.254Z,72.00
2018-12-22T08:02:53.614Z,72.00
2018-12-22T08:05:22.074Z,71.90
2018-12-22T08:07:50.506Z,70.30
2018-12-22T08:10:18.913Z,69.70
2018-12-22T08:12:47.390Z,69.90
2018-12-22T08:15:15.783Z,67.80
2018-12-22T08:17:44.261Z,68.40
2018-12-22T08:20:12.913Z,67.10
2018-12-22T08:22:41.264Z,67.40
2018-12-22T08:25:09.639Z,67.30
2018-12-22T08:27:38.046Z,67.40
2018-12-22T08:30:07.880Z,67.80
2018-12-22T08:32:36.366Z,67.40
2018-12-22T08:35:05.004Z,67.80
2018-12-22T08:37:35.496Z,66.60
2018-12-22T08:40:03.825Z,67.10
2018-12-22T08:42:32.155Z,66.90
2018-12-22T08:45:00.530Z,66.00
2018-12-22T08:47:28.888Z,68.00
2018-12-22T08:49:57.244Z,67.50
2018-12-22T08:52:25.570Z,66.50
2018-12-22T08:54:53.907Z,67.80
2018-12-22T08:57:22.309Z,67.70
2018-12-22T08:59:50.636Z,68.00
2018-12-22T09:02:18.973Z,66.40
2018-12-22T09:04:47.334Z,66.20
2018-12-22T09:07:15.785Z,66.70
2018-12-22T09:09:44.087Z,66.30
2018-12-22T09:12:12.447Z,66.10
2018-12-22T09:14:40.862Z,66.00
2018-12-22T09:17:09.230Z,66.60
2018-12-22T09:19:37.622Z,66.80
2018-12-22T09:22:05.961Z,67.50
2018-12-22T09:24:34.335Z,67.30
2018-12-22T09:27:02.655Z,67.50
2018-12-22T09:29:31.030Z,67.00
2018-12-22T09:31:59.366Z,67.50
2018-12-22T09:34:27.735Z,68.40
2018-12-22T09:36:56.064Z,67.10
2018-12-22T09:39:24.394Z,65.80
2018-12-22T09:41:52.728Z,66.30
2018-12-22T09:44:21.073Z,66.60
2018-12-22T09:46:49.437Z,67.20
2018-12-22T09:49:17.827Z,68.70
2018-12-22T09:51:46.189Z,68.90
2018-12-22T09:54:14.547Z,69.90
2018-12-22T09:56:42.910Z,71.80
2018-12-22T09:59:11.289Z,71.20
2018-12-22T10:01:39.809Z,72.10
2018-12-22T10:04:08.151Z,72.00
2018-12-22T10:06:36.589Z,72.00
2018-12-22T10:09:06.681Z,72.00
2018-12-22T10:11:35.015Z,72.00
2018-12-22T10:14:03.479Z,73.50
2018-12-22T10:16:31.782Z,75.30
2018-12-22T10:19:00.128Z,74.50
2018-12-22T10:21:28.529Z,75.30
2018-12-22T10:23:56.869Z,76.90
2018-12-22T10:26:25.207Z,77.00
2018-12-22T10:28:53.532Z,75.50
2018-12-22T10:31:21.851Z,77.30
2018-12-22T10:33:50.186Z,78.30
2018-12-22T10:36:18.544Z,76.50
2018-12-22T10:38:46.939Z,78.10
2018-12-22T10:41:15.420Z,79.60
2018-12-22T10:43:43.772Z,78.90
2018-12-22T10:46:12.148Z,78.50
2018-12-22T10:48:40.503Z,77.40
2018-12-22T10:51:08.875Z,77.40
2018-12-22T10:53:37.238Z,77.60
2018-12-22T10:56:05.693Z,79.50
2018-12-22T10:58:34.581Z,80.30
2018-12-22T11:01:02.923Z,80.90
2018-12-22T11:03:32.133Z,77.60
2018-12-22T11:06:00.637Z,70.40
2018-12-22T11:08:29.004Z,69.40
2018-12-22T11:10:57.392Z,68.90
2018-12-22T11:13:25.736Z,70.30
2018-12-22T11:15:54.091Z,73.20
2018-12-22T11:18:22.445Z,72.00
2018-12-22T11:20:51.857Z,69.20
2018-12-22T11:23:20.749Z,69.20
2018-12-22T11:25:49.314Z,66.50
2018-12-22T11:28:17.712Z,68.00
2018-12-22T11:30:46.318Z,66.90
2018-12-22T11:33:14.704Z,65.30
2018-12-22T11:35:43.130Z,67.60
2018-12-22T11:38:11.503Z,66.10
2018-12-22T11:40:39.898Z,65.70
2018-12-22T11:43:08.338Z,63.90
2018-12-22T11:45:36.722Z,64.30
2018-12-22T11:49:19.660Z,65.20
2018-12-22T11:51:48.030Z,65.40
2018-12-22T11:54:16.371Z,65.80
2018-12-22T11:56:44.756Z,67.30
2018-12-22T11:59:13.116Z,67.50
2018-12-22T12:01:43.672Z,68.70
2018-12-22T12:04:11.962Z,68.40
2018-12-22T12:06:40.328Z,70.50
2018-12-22T12:09:08.772Z,71.00
2018-12-22T12:11:37.144Z,69.80
2018-12-22T12:14:05.518Z,72.00
2018-12-22T12:16:49.138Z,71.40
2018-12-22T12:19:26.682Z,71.40
2018-12-22T12:21:55.050Z,71.20
2018-12-22T12:24:23.556Z,72.10
2018-12-22T12:26:51.952Z,71.10
2018-12-22T12:29:20.438Z,70.80
2018-12-22T12:31:52.278Z,72.00
2018-12-22T12:34:19.179Z,72.00
2018-12-22T12:36:47.648Z,71.10
2018-12-22T12:39:16.388Z,72.20
2018-12-22T12:41:45.332Z,72.30
2018-12-22T12:44:13.732Z,68.50
2018-12-22T12:46:46.247Z,69.70
2018-12-22T12:49:15.288Z,72.10
2018-12-22T12:51:43.694Z,72.60
2018-12-22T12:54:12.212Z,72.60
2018-12-22T12:56:44.828Z,76.00
2018-12-22T12:59:13.226Z,75.30
2018-12-22T13:01:41.584Z,75.70
2018-12-22T13:04:09.943Z,76.60
2018-12-22T13:06:38.483Z,78.10
2018-12-22T13:09:08.673Z,79.10
2018-12-22T13:11:37.163Z,79.80
2018-12-22T13:14:12.142Z,78.80
2018-12-22T13:16:40.623Z,81.70
2018-12-22T13:19:09.023Z,81.60
2018-12-22T13:21:38.051Z,81.60
2018-12-22T13:24:06.581Z,82.00
2018-12-22T13:26:36.983Z,80.70
2018-12-22T13:29:05.313Z,80.50
2018-12-22T13:31:33.711Z,81.50
2018-12-22T13:34:02.087Z,80.80
2018-12-22T13:36:34.478Z,81.60
2018-12-22T13:39:06.234Z,81.60
2018-12-22T13:41:36.781Z,81.60
2018-12-22T13:44:05.016Z,81.60
2018-12-22T13:46:33.400Z,81.60
2018-12-22T13:49:01.869Z,82.40
2018-12-22T13:51:30.266Z,81.60
2018-12-22T13:53:58.696Z,81.60
2018-12-22T13:56:27.112Z,82.60
2018-12-22T13:58:55.972Z,81.60
2018-12-22T14:01:24.680Z,81.70
2018-12-22T14:03:53.463Z,81.10
2018-12-22T14:06:27.735Z,81.10
2018-12-22T14:08:56.136Z,80.00
2018-12-22T14:11:24.735Z,80.90
2018-12-22T14:13:54.550Z,80.20
2018-12-22T14:16:29.253Z,77.30
2018-12-22T14:19:02.390Z,77.90
2018-12-22T14:21:30.746Z,79.20
2018-12-22T14:24:10.254Z,80.00
2018-12-22T14:26:38.627Z,80.30
2018-12-22T14:29:07.068Z,80.50
2018-12-22T14:31:35.402Z,80.90
2018-12-22T14:34:08.342Z,80.50
2018-12-22T14:36:36.738Z,81.70
2018-12-22T14:39:07.139Z,81.70
2018-12-22T14:41:35.548Z,82.70
2018-12-22T14:44:04.278Z,83.00
2018-12-22T14:46:32.694Z,83.80
2018-12-22T14:49:01.093Z,83.40
2018-12-22T14:51:31.329Z,84.20
2018-12-22T14:53:59.819Z,83.40
2018-12-22T14:56:34.708Z,82.00
2018-12-22T14:59:03.281Z,81.50
2018-12-22T15:01:31.655Z,81.50
2018-12-22T15:04:00.023Z,81.60
2018-12-22T15:06:28.391Z,81.60
2018-12-22T15:08:56.762Z,82.60
2018-12-22T15:11:25.184Z,82.90
2018-12-22T15:13:53.558Z,81.10
2018-12-22T15:16:21.950Z,81.60
2018-12-22T15:18:50.344Z,81.50
2018-12-22T15:21:18.724Z,82.40
2018-12-22T15:23:47.101Z,81.60
2018-12-22T15:26:15.456Z,81.60
2018-12-22T15:28:47.226Z,82.00
2018-12-22T15:31:14.399Z,82.40
2018-12-22T15:33:42.758Z,82.10
2018-12-22T15:36:11.138Z,82.00
2018-12-22T15:38:39.580Z,81.60
2018-12-22T15:41:07.989Z,81.60
2018-12-22T15:43:36.376Z,81.60
2018-12-22T15:46:04.748Z,81.70
2018-12-22T15:48:33.120Z,81.60
2018-12-22T15:51:01.474Z,81.70
2018-12-22T15:53:29.871Z,81.60
2018-12-22T15:55:59.365Z,81.60
2018-12-22T15:58:27.959Z,81.60
2018-12-22T16:00:56.301Z,81.70
2018-12-22T16:03:24.656Z,81.70
2018-12-22T16:05:53.007Z,81.70
2018-12-22T16:08:21.394Z,81.70
2018-12-22T16:10:49.778Z,81.70
2018-12-22T16:13:18.159Z,81.70
2018-12-22T16:15:46.728Z,81.70
2018-12-22T16:18:15.118Z,82.30
2018-12-22T16:20:43.490Z,81.70
2018-12-22T16:23:11.867Z,82.30
2018-12-22T16:25:40.228Z,80.80
2018-12-22T16:28:21.185Z,81.80
2018-12-22T16:30:52.546Z,81.70
2018-12-22T16:33:21.011Z,81.70
2018-12-22T16:35:49.452Z,81.80
2018-12-22T16:38:17.973Z,81.80
2018-12-22T16:40:46.341Z,81.70
2018-12-22T16:43:16.084Z,81.70
2018-12-22T16:45:52.898Z,80.80
2018-12-22T16:48:32.298Z,81.70
2018-12-22T16:51:00.721Z,82.30
2018-12-22T16:53:29.123Z,83.20
2018-12-22T16:55:59.994Z,84.20
2018-12-22T16:58:32.136Z,84.60
2018-12-22T17:01:07.950Z,85.30
2018-12-22T17:03:36.345Z,85.10
2018-12-22T17:06:06.730Z,84.90
2018-12-22T17:08:35.106Z,83.70
2018-12-22T17:11:04.822Z,82.80
2018-12-22T17:13:33.219Z,83.50
2018-12-22T17:16:02.426Z,83.40
2018-12-22T17:18:30.865Z,83.50
2018-12-22T17:21:40.162Z,82.30
2018-12-22T17:24:18.872Z,82.90
2018-12-22T17:26:47.380Z,82.30
2018-12-22T17:29:15.765Z,82.20
2018-12-22T17:31:44.178Z,81.90
2018-12-22T17:34:13.101Z,82.70
2018-12-22T17:36:41.484Z,83.10
2018-12-22T17:39:12.203Z,83.70
2018-12-22T17:41:41.378Z,84.50
2018-12-22T17:44:09.820Z,84.70
2018-12-22T17:46:38.261Z,84.80
2018-12-22T17:49:06.676Z,84.50
2018-12-22T17:51:35.016Z,84.90
2018-12-22T17:54:03.504Z,85.10
2018-12-22T17:56:31.900Z,84.70
2018-12-22T17:59:00.279Z,85.30
2018-12-22T18:01:28.674Z,85.70
2018-12-22T18:03:57.061Z,86.10
2018-12-22T18:06:25.439Z,86.00
2018-12-22T18:08:53.836Z,86.30
2018-12-22T18:11:22.308Z,86.50
2018-12-22T18:13:50.664Z,85.90
2018-12-22T18:16:19.028Z,85.90
2018-12-22T18:18:47.392Z,84.70
2018-12-22T18:21:15.760Z,84.40
2018-12-22T18:23:44.121Z,84.00
2018-12-22T18:26:12.579Z,84.20
2018-12-22T18:28:40.936Z,83.00
2018-12-22T18:31:09.316Z,81.80
2018-12-22T18:33:37.849Z,81.60
2018-12-22T18:36:06.185Z,81.00
2018-12-22T18:38:34.591Z,81.60
2018-12-22T18:41:02.958Z,81.60
2018-12-22T18:43:31.353Z,80.60
2018-12-22T18:45:59.721Z,80.70
2018-12-22T18:48:28.102Z,81.00
2018-12-22T18:50:56.507Z,81.60
2018-12-22T18:53:24.857Z,81.70
2018-12-22T18:55:53.240Z,81.60
2018-12-22T18:58:22.565Z,81.60
2018-12-22T19:00:51.314Z,82.10
2018-12-22T19:03:19.764Z,82.60
2018-12-22T19:05:48.159Z,84.20
2018-12-22T19:08:17.180Z,84.40
2018-12-22T19:10:53.594Z,84.00
2018-12-22T19:13:21.956Z,85.10
2018-12-22T19:15:51.013Z,85.20
2018-12-22T19:18:19.376Z,84.90
2018-12-22T19:20:51.930Z,84.40
2018-12-22T19:23:21.703Z,83.50
2018-12-22T19:25:50.290Z,83.30
2018-12-22T19:28:18.674Z,84.10
2018-12-22T19:30:47.053Z,84.70
2018-12-22T19:33:15.430Z,84.90
2018-12-22T19:35:43.784Z,84.90
2018-12-22T19:38:12.207Z,84.20
2018-12-22T19:40:40.622Z,84.10
2018-12-22T19:43:09.731Z,83.90
2018-12-22T19:45:39.285Z,81.50
2018-12-22T19:48:08.145Z,82.90
2018-12-22T19:50:36.572Z,80.70
2018-12-22T19:53:04.953Z,81.50
2018-12-22T19:55:33.813Z,81.50
2018-12-22T19:58:02.203Z,81.50
2018-12-22T20:00:30.630Z,81.50
2018-12-22T20:02:59.007Z,80.60
2018-12-22T20:05:27.422Z,81.40
2018-12-22T20:07:55.821Z,81.40
2018-12-22T20:10:24.214Z,81.10
2018-12-22T20:12:52.586Z,81.50
2018-12-22T20:15:20.998Z,80.60
2018-12-22T20:17:49.457Z,81.50
2018-12-22T20:20:17.833Z,80.70
2018-12-22T20:22:46.223Z,80.80
2018-12-22T20:25:14.609Z,81.40
2018-12-22T20:27:42.988Z,81.50
2018-12-22T20:30:11.395Z,79.70
2018-12-22T20:32:39.797Z,79.20
2018-12-22T20:35:08.186Z,78.80
2018-12-22T20:37:36.556Z,78.90
2018-12-22T20:40:05.729Z,78.00
2018-12-22T20:42:34.104Z,78.30
2018-12-22T20:45:02.828Z,77.70
2018-12-22T20:47:31.208Z,79.10
2018-12-22T20:49:59.572Z,79.10
2018-12-22T20:52:27.992Z,80.00
2018-12-22T20:54:56.445Z,77.90
2018-12-22T20:57:24.867Z,78.30
2018-12-22T20:59:53.255Z,78.70
2018-12-22T21:02:21.629Z,78.60
2018-12-22T21:04:51.160Z,78.60
2018-12-22T21:07:19.586Z,78.40
2018-12-22T21:09:47.966Z,78.20
2018-12-22T21:12:16.315Z,78.70
2018-12-22T21:14:44.747Z,78.40
2018-12-22T21:17:13.088Z,78.40
2018-12-22T21:19:41.516Z,78.20
2018-12-22T21:22:09.941Z,78.40
2018-12-22T21:24:38.353Z,77.50
2018-12-22T21:27:06.738Z,78.30
2018-12-22T21:29:35.151Z,77.30
2018-12-22T21:32:03.645Z,77.00
2018-12-22T21:34:32.010Z,77.30
2018-12-22T21:37:00.400Z,77.90
2018-12-22T21:39:28.854Z,77.80
2018-12-22T21:41:57.259Z,77.30
2018-12-22T21:44:25.670Z,77.70
2018-12-22T21:46:54.083Z,77.30
2018-12-22T21:49:22.481Z,77.90
2018-12-22T21:51:50.842Z,78.40
2018-12-22T21:54:19.359Z,78.80
2018-12-22T21:56:47.731Z,79.40
2018-12-22T21:59:16.144Z,79.40
2018-12-22T22:01:44.574Z,79.60
2018-12-22T22:04:12.977Z,80.50
2018-12-22T22:06:41.339Z,81.10
2018-12-22T22:09:09.785Z,81.10
2018-12-22T22:11:38.133Z,80.70
2018-12-22T22:14:06.531Z,81.60
2018-12-22T22:16:34.878Z,82.00
2018-12-22T22:19:03.253Z,82.10
2018-12-22T22:21:31.599Z,83.10
2018-12-22T22:23:59.985Z,83.00
2018-12-22T22:26:28.379Z,82.60
2018-12-22T22:28:56.772Z,82.90
2018-12-22T22:31:25.203Z,83.10
2018-12-22T22:33:53.553Z,83.70
2018-12-22T22:36:21.925Z,83.80
2018-12-22T22:38:50.273Z,83.20
2018-12-22T22:41:18.629Z,81.50
2018-12-22T22:43:46.997Z,81.30
2018-12-22T22:46:15.385Z,80.70
2018-12-22T22:48:43.797Z,82.10
2018-12-22T22:51:12.158Z,82.60
2018-12-22T22:53:40.567Z,83.00
2018-12-22T22:56:08.939Z,83.40
2018-12-22T22:58:37.335Z,83.40
2018-12-22T23:01:05.809Z,82.90
2018-12-22T23:03:34.189Z,83.00
2018-12-22T23:06:02.568Z,82.80
2018-12-22T23:08:30.931Z,82.50
2018-12-22T23:10:59.338Z,82.20
2018-12-22T23:13:27.701Z,82.50
2018-12-22T23:15:56.104Z,82.80
2018-12-22T23:18:24.504Z,83.30
2018-12-22T23:20:52.892Z,83.50
2018-12-22T23:23:21.362Z,83.30
2018-12-22T23:25:49.756Z,82.90
2018-12-22T23:28:18.140Z,83.00
2018-12-22T23:30:46.522Z,83.80
2018-12-22T23:33:14.970Z,82.80
2018-12-22T23:35:43.367Z,83.00
2018-12-22T23:38:11.787Z,83.10
2018-12-22T23:40:40.181Z,83.10
2018-12-22T23:43:08.529Z,82.90
2018-12-22T23:45:36.937Z,82.20
2018-12-22T23:48:05.338Z,82.20
2018-12-22T23:50:33.742Z,81.70
2018-12-22T23:53:02.095Z,82.00
2018-12-22T23:55:30.506Z,81.70
2018-12-22T23:57:58.991Z,82.30
